Flight Track Log - Related Links

Times and Time Zones

All times are in EDT time to prevent confusion due to time zone crossing. See the UAL4335 flight status page for this flight to view local times or setup timezone preferences in your user account.

Time Position Orientation Groundspeed Altitude Reporting Facility
EDT Latitude Longitude Course Direction KTS MPH feet Rate Location/Type
Mon 02:56:59 PM 40.7167 -74.1500 270° West 172 198 2,000  Level New York TRACON
Mon 02:57:59 PM 40.7667 -74.1000 37° Northeast 249 287 3,100 2,150 Climbing New York TRACON
Mon 02:58:59 PM 40.8000 -74.1667 303° West 263 303 6,300 3,300 Climbing New York TRACON
Mon 02:59:00 PM 40.6833 -74.5167 270° West  Level FlightAware Approximate
Mon 02:59:59 PM 40.8167 -74.2667 282° West 280 322 9,700  Level New York TRACON
Mon 03:00:00 PM 40.6834 -74.6333 270° West  Level FlightAware Approximate
Mon 03:00:59 PM 40.8000 -74.3667 258° West 283 326 12,300  Level New York TRACON
Mon 03:01:00 PM 40.6834 -74.7500 270° West  Level FlightAware Approximate
Mon 03:01:59 PM 40.7833 -74.4833 259° West 326 375 13,800  Level New York TRACON
Mon 03:02:00 PM 40.6834 -74.8667 270° West  Level FlightAware Approximate
Mon 03:04:06 PM 40.7428 -74.7397 258° West 362 417 16,700  Level New York Center
Mon 03:05:03 PM 40.7219 -74.8644 258° West 375 432 17,000 154 Climbing New York Center
Mon 03:06:03 PM 40.6961 -75.0081 257° West 375 432 17,000 50 Level New York Center
Mon 03:07:04 PM 40.6581 -75.1342 248° West 369 425 17,100 650 Climbing New York Center
Mon 03:08:03 PM 40.6058 -75.2486 239° Southwest 369 425 18,300 1,412 Climbing New York Center
Mon 03:09:03 PM 40.5533 -75.3653 239° Southwest 369 425 19,900 1,488 Climbing New York Center
Mon 03:10:04 PM 40.5008 -75.4819 239° Southwest 369 425 21,300 1,438 Climbing New York Center
Mon 03:11:04 PM 40.4483 -75.5983 239° Southwest 374 430 22,800 1,450 Climbing New York Center
Mon 03:12:04 PM 40.3933 -75.7144 238° Southwest 374 430 24,200 1,426 Climbing New York Center
Mon 03:13:06 PM 40.3386 -75.8303 238° Southwest 374 430 25,700 1,462 Climbing New York Center
Mon 03:14:03 PM 40.2814 -75.9458 237° Southwest 374 430 27,100 1,436 Climbing New York Center
Mon 03:15:03 PM 40.2286 -76.0533 237° Southwest 368 423 28,500 1,438 Climbing New York Center
Mon 03:16:04 PM 40.1800 -76.1611 239° Southwest 357 411 30,000 1,400 Climbing New York Center
Mon 03:17:03 PM 40.1364 -76.2500 237° Southwest 345 397 31,300 1,261 Climbing New York Center
Mon 03:18:03 PM 40.0808 -76.3650 238° Southwest 340 391 32,500 1,362 Climbing New York Center
Mon 03:20:30 PM 39.9783 -76.5986 240° Southwest 332 382 36,000 1,014 Climbing Washington Center
Mon 03:21:30 PM 39.9314 -76.7008 239° Southwest 327 376 36,000  Level Washington Center
Mon 03:22:30 PM 39.8719 -76.8161 236° Southwest 340 391 36,000  Level Washington Center
Mon 03:23:30 PM 39.8231 -76.9261 240° Southwest 351 404 36,000  Level Washington Center
Mon 03:24:30 PM 39.7717 -77.0358 239° Southwest 351 404 36,000  Level Washington Center
Mon 03:25:30 PM 39.7183 -77.1428 237° Southwest 356 410 36,000  Level Washington Center
Mon 03:26:30 PM 39.6689 -77.2522 240° Southwest 356 410 36,000  Level Washington Center
Mon 03:27:30 PM 39.6172 -77.3614 238° Southwest 356 410 36,000  Level Washington Center
Mon 03:28:30 PM 39.5658 -77.4706 239° Southwest 356 410 36,000  Level Washington Center
Mon 03:29:30 PM 39.5139 -77.5794 238° Southwest 356 410 36,000  Level Washington Center
Mon 03:30:30 PM 39.4619 -77.6883 238° Southwest 356 410 36,000  Level Washington Center
Mon 03:31:30 PM 39.4081 -77.7994 238° Southwest 356 410 36,000  Level Washington Center
Mon 03:32:30 PM 39.3622 -77.9136 243° Southwest 356 410 36,000  Level Washington Center
Mon 03:33:30 PM 39.3161 -78.0247 242° Southwest 356 410 36,000  Level Washington Center
Mon 03:34:30 PM 39.2700 -78.1411 243° Southwest 356 410 36,000  Level Washington Center
Mon 03:35:30 PM 39.2236 -78.2547 242° Southwest 362 417 36,000  Level Washington Center
Mon 03:36:30 PM 39.1856 -78.3739 248° West 362 417 36,000  Level Washington Center
Mon 03:37:31 PM 39.1617 -78.4989 256° West 362 417 36,000  Level Washington Center
Mon 03:38:30 PM 39.1356 -78.6289 256° West 367 422 36,000  Level Washington Center
Mon 03:39:30 PM 39.1094 -78.7536 255° West 372 428 36,000  Level Washington Center
Mon 03:40:30 PM 39.0831 -78.8808 255° West 372 428 36,000  Level Washington Center
Mon 03:41:30 PM 39.0567 -79.0078 255° West 372 428 36,000  Level Washington Center
Mon 03:42:30 PM 39.0322 -79.1350 256° West 372 428 36,000  Level Washington Center
Mon 03:43:30 PM 39.0056 -79.2592 255° West 372 428 36,000  Level Washington Center
Mon 03:44:31 PM 38.9764 -79.3886 254° West 372 428 36,000 -450 Level Washington Center
Mon 03:45:30 PM 38.9517 -79.5156 256° West 372 428 35,100 -958 Descending Washington Center
Mon 03:46:30 PM 38.9286 -79.6397 257° West 390 449 34,100 -550 Descending Washington Center
Mon 03:47:30 PM 38.8969 -79.7767 253° West 396 456 34,000 -50 Descending Washington Center
Mon 03:48:30 PM 38.8672 -79.9111 254° West 396 456 34,000  Level Washington Center
Mon 03:49:30 PM 38.8344 -80.0611 254° West 396 456 34,000  Level Washington Center
Mon 03:50:30 PM 38.8186 -80.2039 262° West 396 456 34,000  Level Washington Center
Mon 03:51:04 PM 38.8147 -80.2644 265° West 406 467 34,000  Level Indianapolis Center
Mon 03:52:06 PM 38.8108 -80.4111 268° West 411 473 34,000  Level Indianapolis Center
Mon 03:53:08 PM 38.8083 -80.5561 269° West 408 470 34,000  Level Indianapolis Center
Mon 03:54:10 PM 38.8033 -80.7028 268° West 411 473 34,000  Level Indianapolis Center
Mon 03:55:12 PM 38.7981 -80.8803 268° West 417 480 34,000  Level Indianapolis Center
Mon 03:56:13 PM 38.7919 -81.0261 267° West 410 472 34,000  Level Indianapolis Center
Mon 03:57:15 PM 38.7875 -81.1750 268° West 416 479 34,000 -339 Level Indianapolis Center
Mon 03:58:17 PM 38.7822 -81.3222 267° West 415 478 33,300 -871 Descending Indianapolis Center
Mon 03:59:19 PM 38.7769 -81.4750 268° West 410 472 32,200 -1,016 Descending Indianapolis Center
Mon 04:00:21 PM 38.7717 -81.6200 267° West 408 470 31,200 -1,065 Descending Indianapolis Center
Mon 04:01:23 PM 38.7650 -81.7814 267° West 420 483 30,000 -1,122 Descending Indianapolis Center
Mon 04:02:24 PM 38.7586 -81.9319 267° West 423 487 28,900 -1,171 Descending Indianapolis Center
Mon 04:03:26 PM 38.7403 -82.0825 261° West 434 499 27,600 -1,210 Descending Indianapolis Center
Mon 04:04:28 PM 38.7014 -82.2275 251° West 433 498 26,400 -1,161 Descending Indianapolis Center
Mon 04:05:30 PM 38.6631 -82.3736 251° West 434 499 25,200 -1,258 Descending Indianapolis Center
Mon 04:06:32 PM 38.6211 -82.5300 251° West 428 493 23,800 -1,355 Descending Indianapolis Center
Mon 04:07:34 PM 38.5833 -82.6950 254° West 417 480 22,400 -1,317 Descending Indianapolis Center
Mon 04:08:35 PM 38.5861 -82.8397 271° West 409 471 21,100 -683 Descending Indianapolis Center
Mon 04:09:37 PM 38.5914 -82.9819 273° West 404 465 21,000 -48 Descending Indianapolis Center
Mon 04:10:39 PM 38.5950 -83.1292 272° West 412 474 21,000 -581 Level Indianapolis Center
Mon 04:11:41 PM 38.5994 -83.2722 272° West 406 467 19,800 -1,645 Descending Indianapolis Center
Mon 04:12:43 PM 38.6022 -83.4133 271° West 400 460 17,600 -2,516 Descending Indianapolis Center
Mon 04:13:45 PM 38.6064 -83.5750 272° West 390 449 14,600 -2,516 Descending Indianapolis Center
Mon 04:14:47 PM 38.6092 -83.7022 272° West 363 418 12,400 -2,081 Descending Indianapolis Center
Mon 04:15:49 PM 38.6122 -83.8228 272° West 343 395 10,300 -1,161 Descending Indianapolis Center
Mon 04:16:51 PM 38.6244 -83.9425 277° West 348 400 10,000 -146 Descending Indianapolis Center
Mon 04:17:52 PM 38.6761 -84.0431 303° West 349 402 10,000  Level Indianapolis Center
Mon 04:18:54 PM 38.7406 -84.1681 303° West 354 407 10,000  Level Indianapolis Center
Mon 04:19:56 PM 38.7953 -84.2733 304° West 352 405 10,000  Level Indianapolis Center
Mon 04:20:58 PM 38.8500 -84.3783 304° West 351 404 10,000 -53 Level Indianapolis Center
Mon 04:21:50 PM 38.9000 -84.4667 306° West 328 377 9,900 -420 Descending Cincinnati TRACON
Mon 04:22:38 PM 38.9333 -84.5167 311° West 268 308 9,300 -611 Descending Cincinnati TRACON
Mon 04:23:38 PM 39.0167 -84.5333 351° North 263 303 8,800 -810 Descending Cincinnati TRACON
Mon 04:24:44 PM 39.1000 -84.5500 351° North 281 323 7,600 -1,696 Descending Cincinnati TRACON
Mon 04:25:56 PM 39.1833 -84.5667 351° North 246 283 4,900 -2,250 Descending Cincinnati TRACON

Login

Don't have an account? Register now (free) for customized features, flight alerts, and more!